createdAt,value
2023-04-20T00:00:20.199Z,17.30
2023-04-20T00:00:52.122Z,18.67
2023-04-20T00:01:23.897Z,17.80
2023-04-20T00:01:57.063Z,18.25
2023-04-20T00:02:29.043Z,17.90
2023-04-20T00:03:01.298Z,19.00
2023-04-20T00:03:33.514Z,18.80
2023-04-20T00:04:05.576Z,17.85
2023-04-20T00:04:37.204Z,17.40
2023-04-20T00:05:09.972Z,19.15
2023-04-20T00:05:41.737Z,18.05
2023-04-20T00:06:14.103Z,17.88
2023-04-20T00:06:45.725Z,19.65
2023-04-20T00:07:17.354Z,19.15
2023-04-20T00:07:50.021Z,17.13
2023-04-20T00:08:21.616Z,19.00
2023-04-20T00:08:53.203Z,17.83
2023-04-20T00:09:26.911Z,19.80
2023-04-20T00:09:58.607Z,20.90
2023-04-20T00:10:30.308Z,19.17
2023-04-20T00:11:01.952Z,19.35
2023-04-20T00:11:33.513Z,16.90
2023-04-20T00:12:05.454Z,17.02
2023-04-20T00:12:37.149Z,19.40
2023-04-20T00:13:08.886Z,17.88
2023-04-20T00:13:40.694Z,16.73
2023-04-20T00:14:12.374Z,19.50
2023-04-20T00:14:43.996Z,19.15
2023-04-20T00:15:15.708Z,18.88
2023-04-20T00:15:47.416Z,18.05
2023-04-20T00:16:19.108Z,18.60
2023-04-20T00:16:51.010Z,17.15
2023-04-20T00:17:22.717Z,18.90
2023-04-20T00:17:54.434Z,16.77
2023-04-20T00:18:26.075Z,17.40
2023-04-20T00:18:59.509Z,18.48
2023-04-20T00:19:33.314Z,17.42
2023-04-20T00:20:06.204Z,17.83
2023-04-20T00:20:38.617Z,18.02
2023-04-20T00:21:10.199Z,18.80
2023-04-20T00:21:41.811Z,18.80
2023-04-20T00:22:13.746Z,17.35
2023-04-20T00:22:45.313Z,17.48
2023-04-20T00:23:17.014Z,21.27
2023-04-20T00:23:48.725Z,18.20
2023-04-20T00:24:20.362Z,18.08
2023-04-20T00:24:52.158Z,17.30
2023-04-20T00:25:23.821Z,17.67
2023-04-20T00:25:55.667Z,20.05
2023-04-20T00:26:27.400Z,19.88
2023-04-20T00:26:58.999Z,18.98
2023-04-20T00:27:30.719Z,17.67
2023-04-20T00:28:02.414Z,20.23
2023-04-20T00:28:34.286Z,19.13
2023-04-20T00:29:05.933Z,18.80
2023-04-20T00:29:37.562Z,18.20
2023-04-20T00:30:10.305Z,19.02
2023-04-20T00:30:41.981Z,19.27
2023-04-20T00:31:13.662Z,18.77
2023-04-20T00:31:45.353Z,18.88
2023-04-20T00:32:16.959Z,17.73
2023-04-20T00:32:48.614Z,20.63
2023-04-20T00:33:20.251Z,19.58
2023-04-20T00:33:52.021Z,18.70
2023-04-20T00:34:23.628Z,18.63
2023-04-20T00:34:55.378Z,19.60
2023-04-20T00:35:27.089Z,18.73
2023-04-20T00:35:58.691Z,17.88
2023-04-20T00:36:30.286Z,19.50
2023-04-20T00:37:02.001Z,18.15
2023-04-20T00:37:33.675Z,18.50
2023-04-20T00:38:05.746Z,20.48
2023-04-20T00:38:37.356Z,19.55
2023-04-20T00:39:09.649Z,19.73
2023-04-20T00:39:41.449Z,19.02
2023-04-20T00:40:13.128Z,18.30
2023-04-20T00:40:44.904Z,19.70
2023-04-20T00:41:16.561Z,18.88
2023-04-20T00:41:48.284Z,19.90
2023-04-20T00:42:19.903Z,19.60
2023-04-20T00:42:51.528Z,20.77
2023-04-20T00:43:24.746Z,20.63
2023-04-20T00:43:56.460Z,18.60
2023-04-20T00:44:28.301Z,19.50
2023-04-20T00:44:59.924Z,18.95
2023-04-20T00:45:31.514Z,21.42
2023-04-20T00:46:04.024Z,20.05
2023-04-20T00:46:35.794Z,19.92
2023-04-20T00:47:07.551Z,18.33
2023-04-20T00:47:39.274Z,18.48
2023-04-20T00:48:10.935Z,19.83
2023-04-20T00:48:42.937Z,19.60
2023-04-20T00:49:14.544Z,19.70
2023-04-20T00:49:46.587Z,18.13
2023-04-20T00:50:18.302Z,20.65
2023-04-20T00:50:50.966Z,18.08
2023-04-20T00:51:22.939Z,17.08
2023-04-20T00:51:54.759Z,19.35
2023-04-20T00:52:27.142Z,19.08
2023-04-20T00:52:58.983Z,19.67
2023-04-20T00:53:30.641Z,19.50
2023-04-20T00:54:02.593Z,18.85
2023-04-20T00:54:36.414Z,19.15
2023-04-20T00:55:08.541Z,20.77
2023-04-20T00:55:43.117Z,19.70
2023-04-20T00:56:16.595Z,20.10
2023-04-20T00:56:48.968Z,17.98
2023-04-20T00:57:24.109Z,21.38
2023-04-20T00:57:56.144Z,21.90
2023-04-20T00:58:28.331Z,20.73
2023-04-20T00:59:00.388Z,21.35
2023-04-20T00:59:32.336Z,22.20
2023-04-20T01:00:06.694Z,18.67
2023-04-20T01:00:39.646Z,20.48
2023-04-20T01:01:12.251Z,18.10
2023-04-20T01:01:43.983Z,22.65
2023-04-20T01:02:15.657Z,19.30
2023-04-20T01:02:47.561Z,19.83
2023-04-20T01:03:19.824Z,18.20
2023-04-20T01:03:51.748Z,19.00
2023-04-20T01:04:23.855Z,20.05
2023-04-20T01:04:56.570Z,20.83
2023-04-20T01:05:28.368Z,19.48
2023-04-20T01:06:00.907Z,19.63
2023-04-20T01:06:32.683Z,19.67
2023-04-20T01:07:04.288Z,19.83
2023-04-20T01:07:36.812Z,20.63
2023-04-20T01:08:08.411Z,19.60
2023-04-20T01:08:50.637Z,19.77
2023-04-20T01:09:22.233Z,21.25
2023-04-20T01:09:53.872Z,20.75
2023-04-20T01:10:25.901Z,20.23
2023-04-20T01:10:57.837Z,22.20
2023-04-20T01:11:29.541Z,21.17
2023-04-20T01:12:01.808Z,20.67
2023-04-20T01:12:34.035Z,20.92
2023-04-20T01:13:05.627Z,19.45
2023-04-20T01:13:38.587Z,20.98
2023-04-20T01:14:10.317Z,22.02
2023-04-20T01:14:42.728Z,21.65
2023-04-20T01:15:14.347Z,20.75
2023-04-20T01:15:46.168Z,21.13
2023-04-20T01:16:17.946Z,21.38
2023-04-20T01:16:50.728Z,21.05
2023-04-20T01:17:22.351Z,19.95
2023-04-20T01:17:54.048Z,19.92
2023-04-20T01:18:25.705Z,22.05
2023-04-20T01:18:57.638Z,19.70
2023-04-20T01:19:29.264Z,20.23
2023-04-20T01:20:01.098Z,20.38
2023-04-20T01:20:32.881Z,19.85
2023-04-20T01:21:04.510Z,21.27
2023-04-20T01:21:36.284Z,24.00
2023-04-20T01:22:08.399Z,22.27
2023-04-20T01:22:48.451Z,20.33
2023-04-20T01:23:20.084Z,21.00
2023-04-20T01:23:51.792Z,21.65
2023-04-20T01:24:23.350Z,20.65
2023-04-20T01:24:54.927Z,21.10
2023-04-20T01:25:26.531Z,21.10
2023-04-20T01:25:58.087Z,22.55
2023-04-20T01:26:29.675Z,20.45
2023-04-20T01:27:01.691Z,20.33
2023-04-20T01:27:33.313Z,22.05
2023-04-20T01:28:05.203Z,20.17
2023-04-20T01:28:37.108Z,21.67
2023-04-20T01:29:08.748Z,20.73
2023-04-20T01:29:40.513Z,21.05
2023-04-20T01:30:13.265Z,22.08
2023-04-20T01:30:45.323Z,22.63
2023-04-20T01:31:17.142Z,21.02
2023-04-20T01:31:49.007Z,20.23
2023-04-20T01:32:20.803Z,21.33
2023-04-20T01:32:52.538Z,21.95
2023-04-20T01:33:24.241Z,19.75
2023-04-20T01:33:55.887Z,22.40
2023-04-20T01:34:28.060Z,21.23
2023-04-20T01:34:59.698Z,23.00
2023-04-20T01:35:31.324Z,23.92
2023-04-20T01:36:03.839Z,24.77
2023-04-20T01:36:35.970Z,21.25
2023-04-20T01:37:08.360Z,19.95
2023-04-20T01:37:40.861Z,21.10
2023-04-20T01:38:18.800Z,23.50
2023-04-20T01:38:51.309Z,22.90
2023-04-20T01:39:22.968Z,20.77
2023-04-20T01:39:54.760Z,20.20
2023-04-20T01:40:26.489Z,21.90
2023-04-20T01:40:59.063Z,22.50
2023-04-20T01:41:30.800Z,22.73
2023-04-20T01:42:02.498Z,20.65
2023-04-20T01:42:34.144Z,21.20
2023-04-20T01:43:06.092Z,21.05
2023-04-20T01:43:39.444Z,22.25
2023-04-20T01:44:11.073Z,22.55
2023-04-20T01:44:42.697Z,21.27
2023-04-20T01:45:14.366Z,20.75
2023-04-20T01:45:46.007Z,21.67
2023-04-20T01:46:17.636Z,21.73
2023-04-20T01:46:49.664Z,20.73
2023-04-20T01:47:21.298Z,22.67
2023-04-20T01:47:53.036Z,21.08
2023-04-20T01:48:24.750Z,22.17
2023-04-20T01:48:56.411Z,22.38
2023-04-20T01:49:28.034Z,21.27
2023-04-20T01:49:59.646Z,20.92
2023-04-20T01:50:31.286Z,20.60
2023-04-20T01:51:03.141Z,22.65
2023-04-20T01:51:35.521Z,23.25
2023-04-20T01:52:08.334Z,21.15
2023-04-20T01:52:40.060Z,22.63
2023-04-20T01:53:13.717Z,22.88
2023-04-20T01:53:45.830Z,22.30
2023-04-20T01:54:17.440Z,22.27
2023-04-20T01:54:49.198Z,24.02
2023-04-20T01:55:21.024Z,22.42
2023-04-20T01:55:52.683Z,20.42
2023-04-20T01:56:24.328Z,22.25
2023-04-20T01:56:56.214Z,20.25
2023-04-20T01:57:27.822Z,21.92
2023-04-20T01:57:59.460Z,22.23
2023-04-20T01:58:31.363Z,22.45
2023-04-20T01:59:03.067Z,23.65
2023-04-20T01:59:34.772Z,23.60
2023-04-20T02:00:07.124Z,23.33
2023-04-20T02:00:38.832Z,21.23
2023-04-20T02:01:10.695Z,23.15
2023-04-20T02:01:42.288Z,21.75
2023-04-20T02:02:14.005Z,22.45
2023-04-20T02:02:45.848Z,21.80
2023-04-20T02:03:17.970Z,22.20
2023-04-20T02:03:50.009Z,23.35
2023-04-20T02:04:24.488Z,22.42
2023-04-20T02:04:56.362Z,23.75
2023-04-20T02:05:28.030Z,21.98
2023-04-20T02:05:59.685Z,22.02
2023-04-20T02:06:32.089Z,22.25
2023-04-20T02:07:03.740Z,22.98
2023-04-20T02:07:35.771Z,23.67
2023-04-20T02:08:07.437Z,23.13
2023-04-20T02:08:39.040Z,23.17
2023-04-20T02:09:10.769Z,22.85
2023-04-20T02:09:42.370Z,24.15
2023-04-20T02:10:14.053Z,21.10
2023-04-20T02:10:46.138Z,23.13
2023-04-20T02:11:17.791Z,23.67
2023-04-20T02:11:49.444Z,22.65
2023-04-20T02:12:21.180Z,24.33
2023-04-20T02:12:52.739Z,22.63
2023-04-20T02:13:24.469Z,22.60
2023-04-20T02:13:56.062Z,22.52
2023-04-20T02:14:27.940Z,23.13
2023-04-20T02:14:59.533Z,23.52
2023-04-20T02:15:31.303Z,21.27
2023-04-20T02:16:02.918Z,21.33
2023-04-20T02:16:35.586Z,23.83
2023-04-20T02:17:07.661Z,23.75
2023-04-20T02:17:41.179Z,22.67
2023-04-20T02:18:12.904Z,22.25
2023-04-20T02:18:46.025Z,22.30
2023-04-20T02:19:17.817Z,21.70
2023-04-20T02:19:49.679Z,23.35
2023-04-20T02:20:21.420Z,24.23
2023-04-20T02:20:53.140Z,23.80
2023-04-20T02:21:24.984Z,24.02
2023-04-20T02:21:56.686Z,22.70
2023-04-20T02:22:28.289Z,22.85
2023-04-20T02:22:59.971Z,23.98
2023-04-20T02:23:31.604Z,21.55
2023-04-20T02:24:03.370Z,22.60
2023-04-20T02:24:35.062Z,22.23
2023-04-20T02:25:08.972Z,22.20
2023-04-20T02:25:40.752Z,23.77
2023-04-20T02:26:12.637Z,22.45
2023-04-20T02:26:44.261Z,22.33
2023-04-20T02:27:15.839Z,22.33
2023-04-20T02:27:47.481Z,22.85
2023-04-20T02:28:19.056Z,20.98
2023-04-20T02:28:50.664Z,22.15
2023-04-20T02:29:22.314Z,22.35
2023-04-20T02:29:54.184Z,22.27
2023-04-20T02:30:25.902Z,22.55
2023-04-20T02:30:57.710Z,23.83
2023-04-20T02:31:29.354Z,21.90
2023-04-20T02:32:01.261Z,23.42
2023-04-20T02:32:33.257Z,24.45
2023-04-20T02:33:05.068Z,22.98
2023-04-20T02:33:37.178Z,22.38
2023-04-20T02:34:09.715Z,24.83
2023-04-20T02:34:41.547Z,23.63
2023-04-20T02:35:13.210Z,22.67
2023-04-20T02:35:44.782Z,23.35
2023-04-20T02:36:16.408Z,25.15
2023-04-20T02:36:49.121Z,23.13
2023-04-20T02:37:20.761Z,25.00
2023-04-20T02:37:52.386Z,25.10
2023-04-20T02:38:24.144Z,26.25
2023-04-20T02:38:55.853Z,24.52
2023-04-20T02:39:27.431Z,22.90
2023-04-20T02:39:59.073Z,23.83
2023-04-20T02:40:30.965Z,25.17
2023-04-20T02:41:02.572Z,22.67
2023-04-20T02:41:34.170Z,23.15
2023-04-20T02:42:06.321Z,24.35
2023-04-20T02:42:38.046Z,23.73
2023-04-20T02:43:09.738Z,23.35
2023-04-20T02:43:41.382Z,23.30
2023-04-20T02:44:13.292Z,23.90
2023-04-20T02:44:44.972Z,25.15
2023-04-20T02:45:16.786Z,25.15
2023-04-20T02:45:48.449Z,23.73
2023-04-20T02:46:20.904Z,24.63
2023-04-20T02:46:52.643Z,24.02
2023-04-20T02:47:24.499Z,23.13
2023-04-20T02:47:56.308Z,24.45
2023-04-20T02:48:27.968Z,24.05
2023-04-20T02:48:59.614Z,23.90
2023-04-20T02:49:31.238Z,22.52
2023-04-20T02:50:03.088Z,22.55
2023-04-20T02:50:35.343Z,23.65
2023-04-20T02:51:06.983Z,23.55
2023-04-20T02:51:38.557Z,24.90
2023-04-20T02:52:10.453Z,23.42
2023-04-20T02:52:42.070Z,23.38
2023-04-20T02:53:13.639Z,22.85
2023-04-20T02:53:45.343Z,23.77
2023-04-20T02:54:17.193Z,23.88
2023-04-20T02:54:48.820Z,23.90
2023-04-20T02:55:20.801Z,23.25
2023-04-20T02:55:52.390Z,23.20
2023-04-20T02:56:23.997Z,25.80
2023-04-20T02:56:57.807Z,23.55
2023-04-20T02:57:29.968Z,23.27
2023-04-20T02:58:01.632Z,23.48
2023-04-20T02:58:33.252Z,22.73
2023-04-20T02:59:05.072Z,23.85
2023-04-20T02:59:36.673Z,26.42
2023-04-20T03:00:10.390Z,23.55
2023-04-20T03:00:42.012Z,21.40
2023-04-20T03:01:13.600Z,25.10
2023-04-20T03:01:45.262Z,22.70
2023-04-20T03:02:17.054Z,24.70
2023-04-20T03:02:49.237Z,26.58
2023-04-20T03:03:21.445Z,24.30
2023-04-20T03:03:53.397Z,24.88
2023-04-20T03:04:26.398Z,25.02
2023-04-20T03:04:58.154Z,22.33
2023-04-20T03:05:29.725Z,24.33
2023-04-20T03:06:01.334Z,25.25
2023-04-20T03:06:33.427Z,25.90
2023-04-20T03:07:05.670Z,25.65
2023-04-20T03:07:37.330Z,23.92
2023-04-20T03:08:09.056Z,25.23
2023-04-20T03:08:40.820Z,22.23
2023-04-20T03:09:12.404Z,24.55
2023-04-20T03:09:44.078Z,25.45
2023-04-20T03:10:15.766Z,23.02
2023-04-20T03:10:47.374Z,24.25
2023-04-20T03:11:18.944Z,23.27
2023-04-20T03:11:50.698Z,23.23
2023-04-20T03:12:22.523Z,22.33
2023-04-20T03:12:54.169Z,24.00
2023-04-20T03:13:25.849Z,25.77
2023-04-20T03:13:57.830Z,24.20
2023-04-20T03:14:29.579Z,23.92
2023-04-20T03:15:01.285Z,21.40
2023-04-20T03:15:32.861Z,22.75
2023-04-20T03:16:06.086Z,25.52
2023-04-20T03:16:37.839Z,24.98
2023-04-20T03:17:09.536Z,25.10
2023-04-20T03:17:41.190Z,26.60
2023-04-20T03:18:12.873Z,23.38
2023-04-20T03:18:44.466Z,24.85
2023-04-20T03:19:16.361Z,24.08
2023-04-20T03:19:48.154Z,25.65
2023-04-20T03:20:19.980Z,23.60
2023-04-20T03:20:51.838Z,25.45
2023-04-20T03:21:23.521Z,24.45
2023-04-20T03:21:55.273Z,25.58
2023-04-20T03:22:26.869Z,25.98
2023-04-20T03:22:58.523Z,24.98
2023-04-20T03:23:30.127Z,24.95
2023-04-20T03:24:01.720Z,24.92
2023-04-20T03:24:33.525Z,24.85
2023-04-20T03:25:06.331Z,25.20
2023-04-20T03:25:37.952Z,26.33
2023-04-20T03:26:09.660Z,25.13
2023-04-20T03:26:41.485Z,25.05
2023-04-20T03:27:13.122Z,25.75
2023-04-20T03:27:47.272Z,26.80
2023-04-20T03:28:18.929Z,27.25
2023-04-20T03:28:51.388Z,25.88
2023-04-20T03:29:23.010Z,26.20
2023-04-20T03:29:54.681Z,25.23
2023-04-20T03:30:26.481Z,25.00
2023-04-20T03:30:58.067Z,27.90
2023-04-20T03:31:29.680Z,25.20
2023-04-20T03:32:01.338Z,24.30
2023-04-20T03:32:33.143Z,25.33
2023-04-20T03:33:04.926Z,25.25
2023-04-20T03:33:36.576Z,25.45
2023-04-20T03:34:08.274Z,24.73
2023-04-20T03:34:39.934Z,24.13
2023-04-20T03:35:11.609Z,26.17
2023-04-20T03:35:43.352Z,24.65
2023-04-20T03:36:15.086Z,26.38
2023-04-20T03:36:46.656Z,26.45
2023-04-20T03:37:18.227Z,27.77
2023-04-20T03:37:49.857Z,26.17
2023-04-20T03:38:21.707Z,24.77
2023-04-20T03:38:53.297Z,28.23
2023-04-20T03:39:24.862Z,27.92
2023-04-20T03:39:56.473Z,28.25
2023-04-20T03:40:28.236Z,26.35
2023-04-20T03:40:59.940Z,24.88
2023-04-20T03:41:31.978Z,25.98
2023-04-20T03:42:03.882Z,27.02
2023-04-20T03:42:35.510Z,26.60
2023-04-20T03:43:07.178Z,28.98
2023-04-20T03:43:38.800Z,27.42
2023-04-20T03:44:10.611Z,28.02
2023-04-20T03:44:42.225Z,25.48
2023-04-20T03:45:13.989Z,26.90
2023-04-20T03:45:45.684Z,27.98
2023-04-20T03:46:17.512Z,26.55
2023-04-20T03:46:49.130Z,26.60
2023-04-20T03:47:20.927Z,23.98
2023-04-20T03:47:52.760Z,25.45
2023-04-20T03:48:24.400Z,27.67
2023-04-20T03:48:55.984Z,25.02
2023-04-20T03:49:29.842Z,28.77
2023-04-20T03:50:01.618Z,26.35
2023-04-20T03:50:33.209Z,30.65
2023-04-20T03:51:05.145Z,27.70
2023-04-20T03:51:36.751Z,25.40
2023-04-20T03:52:08.382Z,25.58
2023-04-20T03:52:40.026Z,25.75
2023-04-20T03:53:11.674Z,27.63
2023-04-20T03:53:43.285Z,26.42
2023-04-20T03:54:14.919Z,26.63
2023-04-20T03:54:46.581Z,25.85
2023-04-20T03:55:18.251Z,29.38
2023-04-20T03:55:49.877Z,27.15
2023-04-20T03:56:21.558Z,27.33
2023-04-20T03:56:53.161Z,28.45
2023-04-20T03:57:24.985Z,28.08
2023-04-20T03:57:56.601Z,28.63
2023-04-20T03:58:28.165Z,28.17
2023-04-20T03:58:59.858Z,29.52
2023-04-20T03:59:31.494Z,28.80
2023-04-20T04:00:04.664Z,26.65
2023-04-20T04:00:36.329Z,26.65
2023-04-20T04:01:08.718Z,28.30
2023-04-20T04:01:40.456Z,29.05
2023-04-20T04:02:13.806Z,27.70
2023-04-20T04:02:46.233Z,28.25
2023-04-20T04:03:18.137Z,26.00
2023-04-20T04:03:50.720Z,28.00
2023-04-20T04:04:23.235Z,26.90
2023-04-20T04:04:55.063Z,28.73
2023-04-20T04:05:27.078Z,26.92
2023-04-20T04:05:59.007Z,27.77
2023-04-20T04:06:30.579Z,28.05
2023-04-20T04:07:02.307Z,27.38
2023-04-20T04:07:33.934Z,28.05
2023-04-20T04:08:05.637Z,27.63
2023-04-20T04:08:37.374Z,26.73
2023-04-20T04:09:09.308Z,28.15
2023-04-20T04:09:40.878Z,24.92
2023-04-20T04:10:13.181Z,27.80
2023-04-20T04:10:44.774Z,26.80
2023-04-20T04:11:16.382Z,28.98
2023-04-20T04:11:48.128Z,26.80
2023-04-20T04:12:19.840Z,29.50
2023-04-20T04:12:51.453Z,27.30
2023-04-20T04:13:23.032Z,30.67
2023-04-20T04:13:54.557Z,27.95
2023-04-20T04:14:26.234Z,26.88
2023-04-20T04:14:57.914Z,28.13
2023-04-20T04:15:29.496Z,25.67
2023-04-20T04:16:01.104Z,27.38
2023-04-20T04:16:32.832Z,25.45
2023-04-20T04:17:04.591Z,26.48
2023-04-20T04:17:36.263Z,27.63
2023-04-20T04:18:07.960Z,27.25
2023-04-20T04:18:44.081Z,28.02
2023-04-20T04:19:16.062Z,29.77
2023-04-20T04:19:47.771Z,27.92
2023-04-20T04:20:19.539Z,27.50
2023-04-20T04:20:51.684Z,27.13
2023-04-20T04:21:23.494Z,27.83
2023-04-20T04:21:55.173Z,29.45
2023-04-20T04:22:27.939Z,27.73
2023-04-20T04:23:00.954Z,24.83
2023-04-20T04:23:32.535Z,25.50
2023-04-20T04:24:04.568Z,26.58
2023-04-20T04:24:38.282Z,27.35
2023-04-20T04:25:11.671Z,25.98
2023-04-20T04:25:43.504Z,27.92
2023-04-20T04:26:15.530Z,27.80
2023-04-20T04:26:47.522Z,29.00
2023-04-20T04:27:19.091Z,26.13
2023-04-20T04:27:51.254Z,27.00
2023-04-20T04:28:23.009Z,28.98
2023-04-20T04:28:55.373Z,26.08
2023-04-20T04:29:27.068Z,27.52
2023-04-20T04:29:58.741Z,27.25
2023-04-20T04:30:30.511Z,27.42
2023-04-20T04:31:02.127Z,26.85
2023-04-20T04:31:34.440Z,26.30
2023-04-20T04:32:06.183Z,30.08
2023-04-20T04:32:37.837Z,27.75
2023-04-20T04:33:10.304Z,26.25
2023-04-20T04:33:42.147Z,25.10
2023-04-20T04:34:13.827Z,25.35
2023-04-20T04:34:45.459Z,27.02
2023-04-20T04:35:17.163Z,24.67
2023-04-20T04:35:49.587Z,26.77
2023-04-20T04:36:21.649Z,24.77
2023-04-20T04:36:53.296Z,27.30
2023-04-20T04:37:24.994Z,26.02
2023-04-20T04:37:56.565Z,25.42
2023-04-20T04:38:28.879Z,25.23
2023-04-20T04:39:00.633Z,27.00
2023-04-20T04:39:32.265Z,23.70
2023-04-20T04:40:07.337Z,26.63
2023-04-20T04:40:39.333Z,27.20
2023-04-20T04:41:12.850Z,26.40
2023-04-20T04:41:44.412Z,24.77
2023-04-20T04:42:16.149Z,24.65
2023-04-20T04:42:48.705Z,24.30
2023-04-20T04:43:20.674Z,24.02
2023-04-20T04:43:52.448Z,24.30
2023-04-20T04:44:26.123Z,27.05
2023-04-20T04:44:58.577Z,24.42
2023-04-20T04:45:30.261Z,24.30
2023-04-20T04:46:18.345Z,24.38
2023-04-20T04:46:50.169Z,25.23
2023-04-20T04:47:23.058Z,25.40
2023-04-20T04:47:54.702Z,25.50
2023-04-20T04:48:26.336Z,24.75
2023-04-20T04:49:01.088Z,26.20
2023-04-20T04:49:33.013Z,23.52
2023-04-20T04:50:06.115Z,23.88
2023-04-20T04:50:40.918Z,26.20
2023-04-20T04:51:12.882Z,24.92
2023-04-20T04:51:44.468Z,25.52
2023-04-20T04:52:16.253Z,24.05
2023-04-20T04:52:47.909Z,23.88
2023-04-20T04:53:19.531Z,25.50
2023-04-20T04:53:51.198Z,26.58
2023-04-20T04:54:22.852Z,24.73
2023-04-20T04:54:54.500Z,24.45
2023-04-20T04:55:26.064Z,26.02
2023-04-20T04:55:57.765Z,23.80
2023-04-20T04:56:29.643Z,23.55
2023-04-20T04:57:01.645Z,26.20
2023-04-20T04:57:33.383Z,26.13
2023-04-20T04:58:04.963Z,24.65
2023-04-20T04:58:36.601Z,24.58
2023-04-20T04:59:08.236Z,26.48
2023-04-20T04:59:39.832Z,24.83
2023-04-20T05:00:12.836Z,23.08
2023-04-20T05:00:44.502Z,25.23
2023-04-20T05:01:16.222Z,26.67
2023-04-20T05:01:47.862Z,26.52
2023-04-20T05:02:19.904Z,25.90
2023-04-20T05:02:53.205Z,26.25
2023-04-20T05:03:25.111Z,26.13
2023-04-20T05:03:56.985Z,24.02
2023-04-20T05:04:28.929Z,26.83
2023-04-20T05:05:00.744Z,23.92
2023-04-20T05:05:32.368Z,24.40
2023-04-20T05:06:04.029Z,26.77
2023-04-20T05:06:35.851Z,26.05
2023-04-20T05:07:07.520Z,26.35
2023-04-20T05:07:40.132Z,25.00
2023-04-20T05:08:12.293Z,26.10
2023-04-20T05:08:43.991Z,24.48
2023-04-20T05:09:16.437Z,24.85
2023-04-20T05:09:48.238Z,26.70
2023-04-20T05:10:19.987Z,24.25
2023-04-20T05:10:51.621Z,25.85
2023-04-20T05:11:23.255Z,24.88
2023-04-20T05:11:54.817Z,24.67
2023-04-20T05:12:26.423Z,25.95
2023-04-20T05:13:00.674Z,25.75
2023-04-20T05:13:32.328Z,24.90
2023-04-20T05:14:03.948Z,26.63
2023-04-20T05:14:35.640Z,27.23
2023-04-20T05:15:08.507Z,26.25
2023-04-20T05:15:40.938Z,23.73
2023-04-20T05:16:13.734Z,22.95
2023-04-20T05:16:45.750Z,24.45
2023-04-20T05:17:17.514Z,25.42
2023-04-20T05:17:50.082Z,26.35
2023-04-20T05:18:21.851Z,25.92
2023-04-20T05:18:53.444Z,29.88
2023-04-20T05:19:25.055Z,23.98
2023-04-20T05:19:56.660Z,27.25
2023-04-20T05:20:28.882Z,28.83
2023-04-20T05:21:00.525Z,22.70
2023-04-20T05:21:32.927Z,24.77
2023-04-20T05:22:04.920Z,25.50
2023-04-20T05:22:36.577Z,23.50
2023-04-20T05:23:08.443Z,26.13
2023-04-20T05:23:40.048Z,23.77
2023-04-20T05:24:11.657Z,24.20
2023-04-20T05:24:43.268Z,25.92
2023-04-20T05:25:14.920Z,23.75
2023-04-20T05:25:46.612Z,24.23
2023-04-20T05:26:18.249Z,25.42
2023-04-20T05:26:49.910Z,25.38
2023-04-20T05:27:21.536Z,24.60
2023-04-20T05:27:53.135Z,27.02
2023-04-20T05:28:24.714Z,24.77
2023-04-20T05:28:56.296Z,25.58
2023-04-20T05:29:27.904Z,25.13
2023-04-20T05:30:12.706Z,23.27
2023-04-20T05:30:51.132Z,22.38
2023-04-20T05:31:22.779Z,23.33
2023-04-20T05:31:54.455Z,26.60
2023-04-20T05:32:26.115Z,23.77
2023-04-20T05:32:57.825Z,23.85
2023-04-20T05:33:29.457Z,24.50
2023-04-20T05:34:02.066Z,25.02
2023-04-20T05:34:34.064Z,21.73
2023-04-20T05:35:06.443Z,25.13
2023-04-20T05:35:40.382Z,24.83
2023-04-20T05:36:12.069Z,25.13
2023-04-20T05:36:43.728Z,22.83
2023-04-20T05:37:16.079Z,24.25
2023-04-20T05:37:47.958Z,22.98
2023-04-20T05:38:19.613Z,23.88
2023-04-20T05:38:51.206Z,23.98
2023-04-20T05:39:23.492Z,23.42
2023-04-20T05:39:55.110Z,24.10
2023-04-20T05:40:27.048Z,23.17
2023-04-20T05:40:58.675Z,25.35
2023-04-20T05:41:30.560Z,28.02
2023-04-20T05:42:02.325Z,24.67
2023-04-20T05:42:34.236Z,24.75
2023-04-20T05:43:06.155Z,27.48
2023-04-20T05:43:37.788Z,27.05
2023-04-20T05:44:09.399Z,22.83
2023-04-20T05:44:41.497Z,25.48
2023-04-20T05:45:13.323Z,23.52
2023-04-20T05:45:49.224Z,24.63
2023-04-20T05:46:21.788Z,24.33
2023-04-20T05:46:53.520Z,24.77
2023-04-20T05:47:25.441Z,22.65
2023-04-20T05:47:57.835Z,25.75
2023-04-20T05:48:30.265Z,24.67
2023-04-20T05:49:02.031Z,23.38
2023-04-20T05:49:33.636Z,23.88
2023-04-20T05:50:05.933Z,22.17
2023-04-20T05:50:37.534Z,22.60
2023-04-20T05:51:09.153Z,22.98
2023-04-20T05:51:40.796Z,25.52
2023-04-20T05:52:12.430Z,22.15
2023-04-20T05:52:44.033Z,24.20
2023-04-20T05:53:15.610Z,26.80
2023-04-20T05:53:47.225Z,24.70
2023-04-20T05:54:18.873Z,24.02
2023-04-20T05:54:50.653Z,22.00
2023-04-20T05:55:23.139Z,23.10
2023-04-20T05:55:54.918Z,22.10
2023-04-20T05:56:26.622Z,21.88
2023-04-20T05:56:59.017Z,24.52
2023-04-20T05:57:30.934Z,23.15
2023-04-20T05:58:02.877Z,26.42
2023-04-20T05:58:36.175Z,23.38
2023-04-20T05:59:08.239Z,22.23
2023-04-20T05:59:39.906Z,22.60
2023-04-20T06:00:13.407Z,24.58
2023-04-20T06:00:44.965Z,20.83
2023-04-20T06:01:16.519Z,25.23
2023-04-20T06:01:48.194Z,21.35
2023-04-20T06:02:19.914Z,24.38
2023-04-20T06:02:51.833Z,25.55
2023-04-20T06:03:23.617Z,23.98
2023-04-20T06:03:55.646Z,23.58
2023-04-20T06:04:27.638Z,24.77
2023-04-20T06:05:01.135Z,24.17
2023-04-20T06:05:32.912Z,22.50
2023-04-20T06:06:04.719Z,23.85
2023-04-20T06:06:36.315Z,22.88
2023-04-20T06:07:08.074Z,23.58
2023-04-20T06:07:40.475Z,25.08
2023-04-20T06:08:12.875Z,23.75
2023-04-20T06:08:44.441Z,20.95
2023-04-20T06:09:16.261Z,24.17
2023-04-20T06:09:48.058Z,24.35
2023-04-20T06:10:19.720Z,25.10
2023-04-20T06:10:56.164Z,22.75
2023-04-20T06:11:27.885Z,22.77
2023-04-20T06:12:00.794Z,24.05
2023-04-20T06:12:32.734Z,25.38
2023-04-20T06:13:04.375Z,22.65
2023-04-20T06:13:35.979Z,24.35
2023-04-20T06:14:07.538Z,24.02
2023-04-20T06:14:39.217Z,22.50
2023-04-20T06:15:11.124Z,23.75
2023-04-20T06:15:42.797Z,21.83
2023-04-20T06:16:14.493Z,22.20
2023-04-20T06:16:46.145Z,23.67
2023-04-20T06:17:17.726Z,23.20
2023-04-20T06:17:49.351Z,23.80
2023-04-20T06:18:21.461Z,24.52
2023-04-20T06:18:53.228Z,22.85
2023-04-20T06:19:24.929Z,21.20
2023-04-20T06:19:56.501Z,20.95
2023-04-20T06:20:28.138Z,22.98
2023-04-20T06:21:01.206Z,22.48
2023-04-20T06:21:36.488Z,23.83
2023-04-20T06:22:08.885Z,22.45
2023-04-20T06:22:45.201Z,22.42
2023-04-20T06:23:17.009Z,23.27
2023-04-20T06:23:51.174Z,24.00
2023-04-20T06:24:22.810Z,20.77
2023-04-20T06:24:54.455Z,22.25
2023-04-20T06:25:26.143Z,20.50
2023-04-20T06:25:57.800Z,26.70
2023-04-20T06:26:29.425Z,20.48
2023-04-20T06:27:02.362Z,20.52
2023-04-20T06:27:33.991Z,24.70
2023-04-20T06:28:06.348Z,21.27
2023-04-20T06:28:38.212Z,22.60
2023-04-20T06:29:09.911Z,22.10
2023-04-20T06:29:41.947Z,22.08
2023-04-20T06:30:14.194Z,21.77
2023-04-20T06:30:45.765Z,21.95
2023-04-20T06:31:17.820Z,21.83
2023-04-20T06:31:49.468Z,23.77
2023-04-20T06:32:21.152Z,21.05
2023-04-20T06:32:52.847Z,22.93
2023-04-20T06:33:24.498Z,23.50
2023-04-20T06:33:56.061Z,21.30
2023-04-20T06:34:28.030Z,20.95
2023-04-20T06:34:59.916Z,23.65
2023-04-20T06:35:31.624Z,22.42
2023-04-20T06:36:07.126Z,21.20
2023-04-20T06:36:42.683Z,21.85
2023-04-20T06:37:14.607Z,25.33
2023-04-20T06:37:46.498Z,22.83
2023-04-20T06:38:18.097Z,23.53
2023-04-20T06:38:49.798Z,23.52
2023-04-20T06:39:21.487Z,21.63
2023-04-20T06:39:54.632Z,22.75
2023-04-20T06:40:29.245Z,23.10
2023-04-20T06:41:03.802Z,22.40
2023-04-20T06:41:35.552Z,22.13
2023-04-20T06:42:08.634Z,23.40
2023-04-20T06:42:40.439Z,21.65
2023-04-20T06:43:12.463Z,22.63
2023-04-20T06:43:45.766Z,23.50
2023-04-20T06:44:17.414Z,22.25
2023-04-20T06:44:49.212Z,20.95
2023-04-20T06:45:21.217Z,21.75
2023-04-20T06:45:52.913Z,22.77
2023-04-20T06:46:24.605Z,21.00
2023-04-20T06:46:56.334Z,22.77
2023-04-20T06:47:31.804Z,22.17
2023-04-20T06:48:03.713Z,21.23
2023-04-20T06:48:35.506Z,22.52
2023-04-20T06:49:07.475Z,21.73
2023-04-20T06:49:39.533Z,22.33
2023-04-20T06:50:11.397Z,23.17
2023-04-20T06:50:43.034Z,21.15
2023-04-20T06:51:14.682Z,23.90
2023-04-20T06:51:46.423Z,22.48
2023-04-20T06:52:17.992Z,23.00
2023-04-20T06:52:49.661Z,20.38